Time;durP1;ratioP1;P1;durP2;ratioP2;P2;SDS_P1;SDS_P2;PMS_P1;PMS_P2;Temp;Humidity;BMP_temperature;BMP_pressure;BME280_temperature;BME280_humidity;BME280_pressure;Samples;Min_cycle;Max_cycle;Signal;HPM_P1;HPM_P2
2023/02/07 00:01:30;;;;;;;23.10;10.02;;;;;;;3.45;100.00;103868.97;5118462;28;20047;-64
2023/02/07 00:03:59;;;;;;;26.33;10.07;;;;;;;3.41;100.00;103863.84;5079195;28;20052;-63
2023/02/07 00:06:29;;;;;;;26.88;10.32;;;;;;;3.41;100.00;103863.84;5093033;28;20055;-63
2023/02/07 00:08:58;;;;;;;23.08;10.90;;;;;;;3.42;100.00;103865.56;5111614;27;20122;-63
2023/02/07 00:11:26;;;;;;;20.58;9.88;;;;;;;3.41;100.00;103866.53;5115241;28;20096;-63
2023/02/07 00:13:56;;;;;;;28.13;10.25;;;;;;;3.44;100.00;103867.25;5114356;28;20070;-63
2023/02/07 00:16:26;;;;;;;21.98;9.25;;;;;;;3.44;100.00;103868.13;5114420;28;20052;-62
2023/02/07 00:18:54;;;;;;;20.10;8.77;;;;;;;3.49;100.00;103864.97;5095222;28;20044;-62
2023/02/07 00:21:25;;;;;;;22.17;8.75;;;;;;;3.46;99.21;103863.41;5077756;28;20057;-63
2023/02/07 00:23:53;;;;;;;24.67;8.90;;;;;;;3.42;99.75;103865.56;5095298;28;20048;-63
2023/02/07 00:26:23;;;;;;;21.13;8.77;;;;;;;3.39;99.36;103876.63;5094172;28;20044;-64
2023/02/07 00:28:52;;;;;;;20.88;8.45;;;;;;;3.35;100.00;103877.91;5102313;27;20035;-63
2023/02/07 00:31:26;;;;;;;22.60;8.43;;;;;;;3.37;100.00;103867.84;5115868;28;20410;-63
2023/02/07 00:33:57;;;;;;;20.65;8.70;;;;;;;3.34;100.00;103856.47;5097187;28;20055;-62
2023/02/07 00:36:26;;;;;;;22.38;8.90;;;;;;;3.26;100.00;103862.59;5096826;28;20552;-63
2023/02/07 00:38:57;;;;;;;19.30;8.73;;;;;;;3.22;100.00;103868.41;5098103;27;20051;-63
2023/02/07 00:41:26;;;;;;;21.92;8.70;;;;;;;3.19;100.00;103866.88;5108464;28;20535;-62
2023/02/07 00:43:54;;;;;;;24.92;8.57;;;;;;;3.26;100.00;103859.91;5095986;28;20054;-62
2023/02/07 00:46:23;;;;;;;17.90;7.85;;;;;;;3.34;100.00;103857.38;5115595;28;20556;-61
2023/02/07 00:48:54;;;;;;;22.55;9.27;;;;;;;3.36;100.00;103849.94;5097800;28;20059;-63
2023/02/07 00:51:24;;;;;;;23.27;9.20;;;;;;;3.36;100.00;103854.50;5098256;27;20047;-63
2023/02/07 00:53:53;;;;;;;21.88;9.55;;;;;;;3.30;100.00;103850.56;5094812;28;20063;-63
2023/02/07 00:56:22;;;;;;;24.80;9.30;;;;;;;3.26;100.00;103859.91;5091200;28;20389;-63
2023/02/07 00:58:50;;;;;;;25.13;9.27;;;;;;;3.28;100.00;103860.63;5094079;28;20063;-64
2023/02/07 01:01:18;;;;;;;24.75;9.50;;;;;;;3.30;100.00;103861.31;5114460;27;20484;-63
2023/02/07 01:03:46;;;;;;;22.13;8.93;;;;;;;3.35;100.00;103861.75;5100192;28;20051;-64
2023/02/07 01:06:14;;;;;;;20.83;9.10;;;;;;;3.39;100.00;103865.84;5120212;28;20043;-65
2023/02/07 01:08:42;;;;;;;21.08;9.48;;;;;;;3.41;100.00;103869.22;5116480;28;20051;-63
2023/02/07 01:11:13;;;;;;;22.17;9.90;;;;;;;3.41;100.00;103863.84;5079518;28;20051;-63
2023/02/07 01:13:43;;;;;;;23.35;9.73;;;;;;;3.44;100.00;103862.72;5070486;28;20484;-63
2023/02/07 01:16:28;;;;;;;21.95;9.75;;;;;;;3.41;100.00;103863.84;5100219;28;20040;-64
2023/02/07 01:18:56;;;;;;;21.55;10.35;;;;;;;3.38;100.00;103868.69;5102371;28;20055;-63
2023/02/07 01:21:26;;;;;;;27.30;10.95;;;;;;;3.38;100.00;103866.84;5090065;28;20058;-63
2023/02/07 01:23:55;;;;;;;21.17;9.80;;;;;;;3.40;100.00;103869.41;5089418;28;20083;-61
2023/02/07 01:26:24;;;;;;;20.75;10.40;;;;;;;3.39;100.00;103855.06;5098376;28;20433;-61
2023/02/07 01:28:53;;;;;;;21.80;9.95;;;;;;;3.33;100.00;103865.56;5097400;27;20479;-64
2023/02/07 01:31:22;;;;;;;20.73;9.85;;;;;;;3.26;100.00;103870.69;5095924;28;20093;-64
2023/02/07 01:33:55;;;;;;;21.73;9.55;;;;;;;3.27;100.00;103871.53;5097411;28;20042;-63
2023/02/07 01:36:24;;;;;;;20.42;9.98;;;;;;;3.28;100.00;103857.94;5081898;28;20082;-63
2023/02/07 01:38:53;;;;;;;22.08;10.40;;;;;;;3.28;100.00;103859.78;5121593;27;20042;-62
2023/02/07 01:41:22;;;;;;;21.45;10.35;;;;;;;3.23;100.00;103860.22;5144737;27;20122;-63
2023/02/07 01:44:21;;;;;;;21.40;11.10;;;;;;;3.17;100.00;103871.53;5103726;27;20055;-63
2023/02/07 01:46:50;;;;;;;23.20;10.65;;;;;;;3.13;100.00;103867.47;5088684;28;20080;-62
2023/02/07 01:49:24;;;;;;;23.23;11.07;;;;;;;3.12;100.00;103860.34;5099466;27;20100;-60
2023/02/07 01:52:04;;;;;;;21.73;10.70;;;;;;;3.07;100.00;103873.41;5096681;28;20055;-63
2023/02/07 01:54:33;;;;;;;20.58;10.48;;;;;;;3.04;100.00;103877.22;5081785;28;20040;-65
2023/02/07 01:57:05;;;;;;;21.83;10.68;;;;;;;3.05;100.00;103859.22;5111887;28;20044;-62
2023/02/07 01:59:35;;;;;;;26.13;11.05;;;;;;;3.06;100.00;103858.25;5100673;27;20047;-62
2023/02/07 02:02:04;;;;;;;22.08;11.07;;;;;;;3.07;100.00;103854.56;5122748;28;20048;-62
2023/02/07 02:04:32;;;;;;;25.55;11.00;;;;;;;3.02;100.00;103851.44;5124182;28;20035;-64
2023/02/07 02:07:00;;;;;;;24.00;11.18;;;;;;;2.93;100.00;103856.66;5087395;28;20055;-63
2023/02/07 02:09:28;;;;;;;23.27;10.45;;;;;;;2.87;100.00;103859.94;5105659;28;20107;-63
2023/02/07 02:12:21;;;;;;;25.40;11.07;;;;;;;2.79;100.00;103857.13;5119382;27;20470;-63
2023/02/07 02:15:06;;;;;;;22.83;10.88;;;;;;;2.75;100.00;103861.06;5097754;28;20054;-62
2023/02/07 02:18:12;;;;;;;22.13;11.20;;;;;;;2.77;100.00;103864.50;5116445;28;20068;-64
2023/02/07 02:20:59;;;;;;;;;;;;;;;2.82;100.00;103862.22;5096850;28;20040;-63
2023/02/07 02:24:04;;;;;;;26.80;10.63;;;;;;;2.84;100.00;103865.63;5112042;28;19919;-63
2023/02/07 02:27:09;;;;;;;24.80;11.55;;;;;;;2.88;100.00;103879.63;5114757;28;20067;-64
2023/02/07 02:29:44;;;;;;;;;;;;;;;2.87;100.00;103870.72;5115290;28;20074;-64
2023/02/07 02:32:41;;;;;;;23.50;10.53;;;;;;;2.85;100.00;103880.78;5114409;28;19919;-64
2023/02/07 02:35:23;;;;;;;20.67;10.65;;;;;;;2.83;100.00;103877.38;5112958;28;20130;-64
2023/02/07 02:37:53;;;;;;;19.88;9.88;;;;;;;2.82;100.00;103874.84;5044436;28;20048;-62
2023/02/07 02:40:39;;;;;;;21.52;10.93;;;;;;;2.78;100.00;103869.72;5064998;28;20504;-63
2023/02/07 02:43:30;;;;;;;24.75;11.23;;;;;;;2.70;100.00;103866.88;5092457;28;20384;-63
2023/02/07 02:46:14;;;;;;;21.02;11.20;;;;;;;2.64;100.00;103871.97;5079775;28;20067;-62
2023/02/07 02:48:43;;;;;;;27.10;11.98;;;;;;;2.64;100.00;103864.75;5095798;28;20540;-63
2023/02/07 02:51:11;;;;;;;26.33;12.10;;;;;;;2.66;100.00;103861.91;5091653;28;20059;-64
2023/02/07 02:53:39;;;;;;;24.25;12.13;;;;;;;2.60;100.00;103857.97;5094166;28;20406;-64
2023/02/07 02:56:26;;;;;;;25.40;11.35;;;;;;;2.57;100.00;103858.22;5095583;28;20050;-65
2023/02/07 02:59:11;;;;;;;23.23;11.30;;;;;;;2.48;100.00;103862.59;5101545;28;20105;-61
2023/02/07 03:01:52;;;;;;;23.65;12.18;;;;;;;2.39;100.00;103858.06;5079767;28;20092;-63
2023/02/07 03:04:40;;;;;;;23.00;11.98;;;;;;;2.34;100.00;103866.53;5113752;28;20050;-65
2023/02/07 03:07:29;;;;;;;22.73;12.25;;;;;;;2.33;100.00;103862.16;5090057;28;20048;-63
2023/02/07 03:10:09;;;;;;;23.90;11.68;;;;;;;2.32;100.00;103862.28;5092246;28;20120;-63
2023/02/07 03:12:46;;;;;;;23.98;12.18;;;;;;;2.25;100.00;103858.44;5085654;28;20051;-63
2023/02/07 03:15:20;;;;;;;23.20;11.93;;;;;;;2.19;100.00;103864.38;5094239;28;20404;-62
2023/02/07 03:17:57;;;;;;;23.92;12.90;;;;;;;2.17;100.00;103872.59;5092383;28;20055;-62
2023/02/07 03:20:33;;;;;;;22.90;12.13;;;;;;;2.20;100.00;103866.06;5075231;28;20134;-62
2023/02/07 03:23:02;;;;;;;23.73;11.60;;;;;;;2.25;100.00;103864.66;5092234;28;20036;-62
2023/02/07 03:25:31;;;;;;;21.33;12.13;;;;;;;2.27;100.00;103875.31;5091560;28;20056;-62
2023/02/07 03:28:00;;;;;;;24.77;12.75;;;;;;;2.20;100.00;103871.47;5079053;28;20059;-63
2023/02/07 03:30:30;;;;;;;21.70;12.27;;;;;;;2.17;100.00;103863.66;5095783;28;20048;-61
2023/02/07 03:33:06;;;;;;;21.50;12.15;;;;;;;2.19;100.00;103865.22;5095508;28;20047;-63
2023/02/07 03:35:46;;;;;;;22.38;12.38;;;;;;;2.17;100.00;103871.75;5106053;28;20112;-64
2023/02/07 03:38:14;;;;;;;22.67;12.20;;;;;;;2.21;100.00;103862.38;5112400;28;20472;-63
2023/02/07 03:40:52;;;;;;;23.33;12.43;;;;;;;2.24;100.00;103862.13;5113338;28;20039;-63
2023/02/07 03:43:23;;;;;;;24.42;12.27;;;;;;;2.20;100.00;103861.53;5112294;28;20108;-64
2023/02/07 03:45:51;;;;;;;22.55;12.30;;;;;;;2.13;100.00;103861.22;5110047;28;20040;-64
2023/02/07 03:48:19;;;;;;;28.13;12.93;;;;;;;2.09;100.00;103857.13;5113426;28;20497;-63
2023/02/07 03:50:48;;;;;;;23.40;12.80;;;;;;;2.15;100.00;103860.25;5112047;28;20054;-64
2023/02/07 03:53:16;;;;;;;27.05;12.55;;;;;;;2.10;100.00;103856.13;5109781;28;20094;-63
2023/02/07 03:55:44;;;;;;;23.52;13.15;;;;;;;2.03;100.00;103856.81;5096666;28;20051;-62
2023/02/07 03:58:11;;;;;;;28.27;13.45;;;;;;;1.92;100.00;103849.69;5115166;28;20044;-63
2023/02/07 04:00:39;;;;;;;30.38;13.13;;;;;;;1.85;100.00;103846.72;5098885;28;20487;-63
2023/02/07 04:03:07;;;;;;;29.33;13.93;;;;;;;1.87;100.00;103849.25;5115635;28;20085;-63
2023/02/07 04:05:35;;;;;;;26.23;13.70;;;;;;;1.83;100.00;103850.53;5114723;28;20392;-64
2023/02/07 04:08:03;;;;;;;27.08;14.00;;;;;;;1.84;100.00;103844.16;5099232;27;20039;-63
2023/02/07 04:10:31;;;;;;;27.42;14.20;;;;;;;1.81;100.00;103857.88;5115714;28;20400;-64
2023/02/07 04:12:58;;;;;;;28.85;15.00;;;;;;;1.71;100.00;103849.78;5114658;27;20043;-62
2023/02/07 04:15:26;;;;;;;27.85;15.05;;;;;;;1.74;100.00;103848.66;5078426;28;20102;-63
2023/02/07 04:17:54;;;;;;;29.60;15.38;;;;;;;1.78;100.00;103844.69;5111313;27;20048;-63
2023/02/07 04:20:21;;;;;;;26.42;16.02;;;;;;;1.81;100.00;103844.44;5115364;28;20066;-63
2023/02/07 04:22:49;;;;;;;27.63;15.77;;;;;;;1.77;100.00;103849.22;5116211;28;20076;-63
2023/02/07 04:25:17;;;;;;;27.50;15.40;;;;;;;1.81;100.00;103855.19;5114221;28;20055;-62
2023/02/07 04:27:45;;;;;;;24.05;15.60;;;;;;;1.77;100.00;103840.31;5108164;27;20039;-63
2023/02/07 04:30:13;;;;;;;23.33;14.63;;;;;;;1.68;100.00;103841.94;5094794;28;20630;-63
2023/02/07 04:32:40;;;;;;;21.40;14.43;;;;;;;1.65;100.00;103835.00;5096338;28;20399;-63
2023/02/07 04:35:08;;;;;;;22.58;14.65;;;;;;;1.67;100.00;103835.72;5095529;28;20056;-64
2023/02/07 04:37:36;;;;;;;19.45;13.30;;;;;;;1.75;100.00;103839.59;5098001;27;20039;-65
2023/02/07 04:40:04;;;;;;;23.85;15.60;;;;;;;1.78;100.00;103845.56;5094470;28;20044;-63
2023/02/07 04:42:31;;;;;;;21.77;14.82;;;;;;;1.78;100.00;103840.19;5114216;28;20044;-63
2023/02/07 04:44:59;;;;;;;22.98;15.20;;;;;;;1.77;100.00;103838.47;5097823;28;20055;-61
2023/02/07 04:47:27;;;;;;;23.27;15.15;;;;;;;1.68;100.00;103837.44;5095943;28;20046;-63
2023/02/07 04:49:54;;;;;;;24.50;15.93;;;;;;;1.58;100.00;103831.16;5110585;27;20134;-63
2023/02/07 04:52:22;;;;;;;24.35;16.27;;;;;;;1.51;100.00;103824.63;5086246;28;20048;-62
2023/02/07 04:54:50;;;;;;;22.75;15.50;;;;;;;1.47;100.00;103807.06;5100322;28;20423;-63
2023/02/07 04:57:17;;;;;;;23.05;15.60;;;;;;;1.47;100.00;103825.88;5097897;28;20388;-62
2023/02/07 04:59:45;;;;;;;20.58;14.65;;;;;;;1.49;100.00;103821.19;5114155;28;20518;-63
2023/02/07 05:02:13;;;;;;;21.00;14.85;;;;;;;1.51;100.00;103818.41;5112554;28;20138;-64
2023/02/07 05:04:40;;;;;;;24.90;15.90;;;;;;;1.55;100.00;103823.38;5114236;28;20047;-65
2023/02/07 05:07:08;;;;;;;23.40;16.13;;;;;;;1.51;100.00;103816.56;5114195;28;20043;-66
2023/02/07 05:09:36;;;;;;;23.08;16.17;;;;;;;1.54;100.00;103821.69;5117021;28;20055;-63
2023/02/07 05:12:03;;;;;;;23.27;16.73;;;;;;;1.59;100.00;103830.19;5082385;28;20035;-63
2023/02/07 05:14:32;;;;;;;26.05;17.08;;;;;;;1.61;100.00;103828.22;5097550;28;20070;-63
2023/02/07 05:16:59;;;;;;;24.05;17.10;;;;;;;1.67;100.00;103827.66;5117472;27;20047;-63
2023/02/07 05:19:27;;;;;;;26.17;18.15;;;;;;;1.66;100.00;103833.16;5082974;28;20496;-63
2023/02/07 05:21:54;;;;;;;25.98;17.95;;;;;;;1.63;100.00;103847.72;5093513;28;20063;-64
2023/02/07 05:24:22;;;;;;;27.98;18.77;;;;;;;1.62;100.00;103853.25;5095006;28;20503;-63
2023/02/07 05:26:50;;;;;;;28.15;17.17;;;;;;;1.69;100.00;103839.13;5095700;28;20047;-62
2023/02/07 05:29:18;;;;;;;26.25;17.13;;;;;;;1.77;100.00;103843.00;5111846;27;20047;-62
2023/02/07 05:34:33;;;;;;;23.30;16.67;;;;;;;1.88;100.00;103851.81;5095636;28;20052;-63
2023/02/07 05:37:01;;;;;;;22.15;15.50;;;;;;;1.84;100.00;103849.53;5101638;28;20059;-61
2023/02/07 05:39:28;;;;;;;24.42;16.67;;;;;;;1.80;100.00;103853.47;5117998;28;20047;-62
2023/02/07 05:41:56;;;;;;;22.02;14.98;;;;;;;1.75;100.00;103845.81;5127311;28;20063;-63
2023/02/07 05:44:24;;;;;;;24.15;14.85;;;;;;;1.67;100.00;103857.22;5120184;28;20048;-63
2023/02/07 05:46:51;;;;;;;22.40;15.35;;;;;;;1.52;100.00;103863.94;5114412;27;20411;-61
2023/02/07 05:49:19;;;;;;;22.73;15.20;;;;;;;1.38;100.00;103869.66;5114720;28;20040;-62
2023/02/07 05:51:47;;;;;;;23.83;15.63;;;;;;;1.36;100.00;103864.41;5107241;28;20143;-62
2023/02/07 05:54:14;;;;;;;22.48;14.38;;;;;;;1.42;100.00;103865.69;5093525;28;20048;-62
2023/02/07 05:56:42;;;;;;;23.15;14.95;;;;;;;1.48;100.00;103863.34;5102948;28;20059;-63
2023/02/07 05:59:10;;;;;;;21.48;15.68;;;;;;;1.52;100.00;103866.63;5092749;28;20135;-64
2023/02/07 06:01:37;;;;;;;21.73;15.13;;;;;;;1.54;100.00;103862.00;5109753;28;20048;-63
2023/02/07 06:04:05;;;;;;;23.00;15.90;;;;;;;1.51;100.00;103874.81;5094130;28;20047;-63
2023/02/07 06:06:33;;;;;;;27.70;15.45;;;;;;;1.41;100.00;103870.22;5077105;28;20054;-63
2023/02/07 06:09:02;;;;;;;24.83;16.10;;;;;;;1.38;100.00;103877.72;5098901;28;20119;-64
2023/02/07 06:11:31;;;;;;;26.63;16.40;;;;;;;1.37;100.00;103878.69;5100685;27;20047;-62
2023/02/07 06:13:59;;;;;;;24.08;15.63;;;;;;;1.29;100.00;103876.66;5087223;28;20052;-62
2023/02/07 06:16:27;;;;;;;24.50;16.65;;;;;;;1.21;100.00;103879.16;5093753;28;20484;-61
2023/02/07 06:18:54;;;;;;;22.83;15.90;;;;;;;1.20;100.00;103883.69;5093951;28;20046;-62
2023/02/07 06:21:23;;;;;;;25.05;16.80;;;;;;;1.16;100.00;103898.34;5094051;28;20182;-63
2023/02/07 06:23:56;;;;;;;25.25;16.38;;;;;;;1.15;100.00;103896.63;5112185;28;20046;-62
2023/02/07 06:26:24;;;;;;;25.63;16.65;;;;;;;1.18;100.00;103901.75;5112863;28;20047;-62
2023/02/07 06:28:51;;;;;;;27.73;17.35;;;;;;;1.14;100.00;103905.69;5104024;27;20051;-63
2023/02/07 06:31:19;;;;;;;22.83;16.13;;;;;;;0.97;100.00;103898.19;5094758;28;20439;-62
2023/02/07 06:33:47;;;;;;;22.05;15.50;;;;;;;0.75;100.00;103905.34;5093218;28;20411;-63
2023/02/07 06:36:15;;;;;;;21.08;14.93;;;;;;;0.63;100.00;103903.66;5095958;28;20052;-63
2023/02/07 06:38:42;;;;;;;20.60;14.65;;;;;;;0.60;100.00;103901.22;5092857;28;20040;-62
2023/02/07 06:41:10;;;;;;;21.20;14.75;;;;;;;0.48;100.00;103902.22;5110272;28;20054;-64
2023/02/07 06:43:38;;;;;;;20.83;14.10;;;;;;;0.49;100.00;103899.44;5075332;28;20139;-61
2023/02/07 06:46:06;;;;;;;19.15;13.13;;;;;;;0.62;100.00;103899.25;5092110;28;20536;-63
2023/02/07 06:48:34;;;;;;;21.40;13.73;;;;;;;0.70;100.00;103907.56;5075610;28;20093;-63
2023/02/07 06:51:02;;;;;;;18.02;13.18;;;;;;;0.86;100.00;103904.44;5106183;28;20126;-63
2023/02/07 06:53:30;;;;;;;16.95;12.68;;;;;;;0.88;100.00;103909.69;5093326;28;20109;-64
2023/02/07 06:55:59;;;;;;;19.98;12.88;;;;;;;0.78;100.00;103915.81;5092384;28;20097;-62
2023/02/07 06:58:26;;;;;;;19.33;13.52;;;;;;;0.61;100.00;103913.66;5092068;28;20377;-63
2023/02/07 07:00:54;;;;;;;18.80;13.38;;;;;;;0.52;100.00;103901.00;4392593;28;10000439;-64
2023/02/07 07:03:25;;;;;;;19.80;14.20;;;;;;;0.55;100.00;103912.31;5089439;28;20418;-65
2023/02/07 07:05:53;;;;;;;18.10;13.70;;;;;;;0.53;100.00;103911.63;5088228;28;20062;-64
2023/02/07 07:08:21;;;;;;;18.25;13.88;;;;;;;0.45;100.00;103921.25;5090095;28;20131;-65
2023/02/07 07:10:50;;;;;;;20.95;14.95;;;;;;;0.38;100.00;103929.78;5094027;28;20112;-64
2023/02/07 07:13:19;;;;;;;20.83;13.90;;;;;;;0.46;100.00;103933.69;5109157;28;20047;-64
2023/02/07 07:15:47;;;;;;;20.33;13.88;;;;;;;0.53;100.00;103938.44;5109828;28;20559;-63
2023/02/07 07:18:15;;;;;;;20.40;14.93;;;;;;;0.53;100.00;103932.22;5110807;28;20051;-64
2023/02/07 07:20:42;;;;;;;18.88;14.10;;;;;;;0.46;100.00;103931.00;5090601;28;20120;-64
2023/02/07 07:23:10;;;;;;;22.42;17.10;;;;;;;0.36;100.00;103931.75;5089190;28;20167;-66
2023/02/07 07:25:37;;;;;;;25.48;15.80;;;;;;;0.28;100.00;103939.56;5089640;28;20044;-66
2023/02/07 07:28:05;;;;;;;26.13;17.65;;;;;;;0.23;100.00;103943.59;5100136;28;20141;-64
2023/02/07 07:30:33;;;;;;;20.65;15.88;;;;;;;0.11;100.00;103946.25;5110496;28;20043;-64
2023/02/07 07:33:01;;;;;;;21.67;16.20;;;;;;;0.01;100.00;103947.13;5113383;28;20098;-65
2023/02/07 07:35:29;;;;;;;22.23;16.00;;;;;;;-0.05;100.00;103943.94;5096345;28;20067;-65
2023/02/07 07:37:56;;;;;;;19.90;14.60;;;;;;;-0.07;100.00;103951.25;5113216;27;20051;-65
2023/02/07 07:40:24;;;;;;;18.77;13.55;;;;;;;-0.01;100.00;103950.75;5112031;28;20127;-66
2023/02/07 07:42:52;;;;;;;18.85;13.27;;;;;;;0.05;100.00;103951.25;5115818;28;20048;-65
2023/02/07 07:45:28;;;;;;;19.00;13.52;;;;;;;-0.02;100.00;103953.56;5100220;28;20063;-67
2023/02/07 07:47:56;;;;;;;17.83;13.18;;;;;;;-0.08;100.00;103962.09;5092310;28;20051;-65
2023/02/07 07:50:24;;;;;;;18.52;14.02;;;;;;;-0.06;100.00;103958.31;5096344;28;20076;-65
2023/02/07 07:52:51;;;;;;;20.02;14.13;;;;;;;0.11;100.00;103964.19;5103073;28;20059;-64
2023/02/07 07:55:19;;;;;;;19.55;13.75;;;;;;;0.12;100.00;103968.56;5096733;28;20048;-64
2023/02/07 07:57:47;;;;;;;24.10;14.27;;;;;;;-0.02;100.00;103965.16;5107493;28;20487;-66
2023/02/07 08:00:15;;;;;;;19.95;13.65;;;;;;;-0.10;100.00;103964.03;5104563;27;20055;-64
2023/02/07 08:02:43;;;;;;;19.30;14.25;;;;;;;-0.02;100.00;103969.66;5099960;27;20048;-63
2023/02/07 08:05:10;;;;;;;21.05;14.43;;;;;;;0.07;100.00;103968.06;5093239;28;20040;-64
2023/02/07 08:07:40;;;;;;;19.63;14.80;;;;;;;0.10;100.00;103974.06;5102654;27;20461;-64
2023/02/07 08:10:08;;;;;;;20.35;15.65;;;;;;;0.06;100.00;103974.41;5105053;27;20043;-64
2023/02/07 08:12:36;;;;;;;19.88;14.15;;;;;;;-0.06;100.00;103985.09;5112000;28;20101;-65
2023/02/07 08:15:06;;;;;;;18.10;13.30;;;;;;;-0.07;100.00;103979.88;5113201;28;20062;-63
2023/02/07 08:17:34;;;;;;;19.15;13.60;;;;;;;-0.01;100.00;103976.72;5111892;27;20045;-63
2023/02/07 08:20:04;;;;;;;18.75;13.38;;;;;;;0.15;100.00;103976.38;5093487;28;20051;-62
2023/02/07 08:22:31;;;;;;;18.98;13.75;;;;;;;0.29;100.00;103973.47;5096149;28;20065;-64
2023/02/07 08:24:59;;;;;;;25.02;13.90;;;;;;;0.40;100.00;103959.19;5094003;28;20507;-64
2023/02/07 08:27:27;;;;;;;22.00;13.65;;;;;;;0.43;100.00;103966.97;5095819;28;20063;-64
2023/02/07 08:29:55;;;;;;;19.73;13.98;;;;;;;0.40;100.00;103965.38;5104218;28;20062;-64
2023/02/07 08:32:22;;;;;;;20.02;13.77;;;;;;;0.34;100.00;103967.72;5085178;28;20047;-64
2023/02/07 08:34:50;;;;;;;17.38;13.40;;;;;;;0.31;100.00;103962.59;5096197;28;20071;-64
2023/02/07 08:37:18;;;;;;;20.80;14.50;;;;;;;0.33;100.00;103972.22;5095889;28;20060;-64
2023/02/07 08:39:45;;;;;;;20.77;14.77;;;;;;;0.28;100.00;103965.53;5095788;28;20048;-64
2023/02/07 08:42:13;;;;;;;20.90;15.35;;;;;;;0.27;100.00;103969.19;5106207;28;20047;-63
2023/02/07 08:44:40;;;;;;;20.00;14.95;;;;;;;0.27;100.00;103970.03;5116282;28;20122;-63
2023/02/07 08:47:08;;;;;;;21.33;14.98;;;;;;;0.25;100.00;103966.63;5116157;28;20071;-64
2023/02/07 08:49:36;;;;;;;19.55;13.75;;;;;;;0.31;100.00;103960.75;5107144;28;20077;-64
2023/02/07 08:52:04;;;;;;;20.13;13.98;;;;;;;0.37;100.00;103960.28;5095770;28;20043;-64
2023/02/07 08:54:31;;;;;;;19.08;13.25;;;;;;;0.44;100.00;103965.16;5095511;28;20052;-64
2023/02/07 08:56:59;;;;;;;21.70;14.60;;;;;;;0.53;100.00;103953.66;5094448;28;20056;-64
2023/02/07 08:59:27;;;;;;;21.98;14.05;;;;;;;0.50;100.00;103948.56;5097327;28;20073;-64
2023/02/07 09:01:55;;;;;;;20.58;13.73;;;;;;;0.45;100.00;103953.44;5095979;28;20044;-64
2023/02/07 09:04:23;;;;;;;18.27;13.68;;;;;;;0.48;100.00;103955.88;5094431;28;20052;-64
2023/02/07 09:06:50;;;;;;;21.17;14.48;;;;;;;0.44;100.00;103951.75;5096241;28;20044;-64
2023/02/07 09:09:18;;;;;;;19.80;13.98;;;;;;;0.35;100.00;103956.00;5081759;28;20044;-64
2023/02/07 09:11:46;;;;;;;20.85;14.65;;;;;;;0.38;100.00;103955.75;5095650;28;20488;-65
2023/02/07 09:14:14;;;;;;;20.20;13.95;;;;;;;0.43;100.00;103953.56;5094668;28;20044;-65
2023/02/07 09:16:41;;;;;;;21.90;15.02;;;;;;;0.46;100.00;103952.47;5104251;28;20102;-62
2023/02/07 09:19:09;;;;;;;21.17;14.25;;;;;;;0.52;100.00;103957.34;5134427;28;20071;-64
2023/02/07 09:21:37;;;;;;;20.17;14.63;;;;;;;0.60;100.00;103949.50;5118041;28;20097;-63
2023/02/07 09:24:05;;;;;;;21.33;13.77;;;;;;;0.60;100.00;103952.19;5104226;28;20047;-62
2023/02/07 09:26:34;;;;;;;22.08;14.73;;;;;;;0.59;100.00;103953.19;5126711;28;20112;-63
2023/02/07 09:29:01;;;;;;;20.58;13.95;;;;;;;0.62;100.00;103950.25;5108894;28;20048;-62
2023/02/07 09:31:30;;;;;;;18.95;12.77;;;;;;;0.70;100.00;103955.84;5094520;28;20047;-64
2023/02/07 09:33:59;;;;;;;19.67;13.85;;;;;;;0.78;100.00;103957.91;5095345;28;20051;-63
2023/02/07 09:36:28;;;;;;;20.13;13.32;;;;;;;0.83;100.00;103956.53;5095953;28;20087;-62
2023/02/07 09:38:58;;;;;;;17.08;13.02;;;;;;;0.91;100.00;103947.84;5095342;28;20048;-65
2023/02/07 09:41:51;;;;;;;18.13;13.30;;;;;;;0.99;100.00;103933.81;5081306;28;20085;-62
2023/02/07 09:44:41;;;;;;;19.77;13.23;;;;;;;1.03;100.00;103932.56;5115812;28;20538;-65
2023/02/07 09:47:18;;;;;;;20.08;13.32;;;;;;;1.08;100.00;103933.03;5112761;28;20043;-63
2023/02/07 09:50:06;;;;;;;17.90;12.98;;;;;;;1.14;100.00;103929.00;5114282;28;20071;-64
2023/02/07 09:52:48;;;;;;;21.48;13.27;;;;;;;1.14;100.00;103927.16;5114169;28;20127;-62
2023/02/07 09:55:34;;;;;;;18.73;13.15;;;;;;;1.16;100.00;103925.19;5095710;28;20201;-64
2023/02/07 09:58:35;;;;;;;19.75;13.05;;;;;;;1.24;100.00;103935.28;5111680;28;20050;-63
2023/02/07 10:01:36;;;;;;;18.13;12.65;;;;;;;1.27;100.00;103926.97;5101033;28;20082;-63
2023/02/07 10:04:26;;;;;;;19.08;12.23;;;;;;;1.30;100.00;103912.44;5079126;28;20067;-64
2023/02/07 10:06:56;;;;;;;20.95;13.85;;;;;;;1.35;100.00;103912.88;5094712;28;20052;-63
2023/02/07 10:09:28;;;;;;;19.70;13.40;;;;;;;1.38;100.00;103918.00;5096106;28;20142;-64
2023/02/07 10:12:20;;;;;;;19.05;12.93;;;;;;;1.42;100.00;103920.31;5114491;28;20395;-62
2023/02/07 10:15:08;;;;;;;18.00;12.23;;;;;;;1.46;100.00;103921.75;5114510;28;20054;-64
2023/02/07 10:17:54;;;;;;;19.65;12.77;;;;;;;1.45;100.00;103922.72;5111794;28;20051;-64
2023/02/07 10:20:28;;;;;;;18.98;10.80;;;;;;;1.43;100.00;103919.31;5114751;28;20051;-64
2023/02/07 10:23:20;;;;;;;15.73;10.98;;;;;;;1.48;100.00;103922.47;5095362;28;20048;-64
2023/02/07 10:25:58;;;;;;;18.80;10.80;;;;;;;1.53;100.00;103922.06;5096075;28;20047;-64
2023/02/07 10:28:28;;;;;;;18.00;11.52;;;;;;;1.56;100.00;103921.78;5097476;28;20421;-63
2023/02/07 10:30:59;;;;;;;15.52;10.50;;;;;;;1.62;99.81;103932.03;5096319;28;20381;-65
2023/02/07 10:33:36;;;;;;;15.98;9.70;;;;;;;1.64;98.44;103924.69;5084548;28;20487;-64
2023/02/07 10:36:09;;;;;;;16.33;9.70;;;;;;;1.66;97.99;103928.09;5045497;28;20056;-64
2023/02/07 10:38:56;;;;;;;14.90;9.55;;;;;;;1.67;98.02;103921.75;5093542;28;20048;-65
2023/02/07 10:41:40;;;;;;;14.45;9.45;;;;;;;1.69;97.54;103922.47;5092671;28;20066;-65
2023/02/07 10:44:16;;;;;;;15.23;9.85;;;;;;;1.73;96.99;103919.50;5092630;28;20511;-64
2023/02/07 10:46:46;;;;;;;15.38;9.05;;;;;;;1.70;96.95;103915.25;5076362;28;20142;-64
2023/02/07 10:49:26;;;;;;;21.73;9.27;;;;;;;1.75;97.96;103914.84;5092838;28;20545;-63
2023/02/07 10:52:01;;;;;;;14.07;9.65;;;;;;;1.77;97.44;103920.94;5093128;28;20052;-63
2023/02/07 10:54:29;;;;;;;14.82;9.18;;;;;;;1.76;97.19;103917.41;5095957;28;20040;-63
2023/02/07 10:57:01;;;;;;;15.45;10.48;;;;;;;1.77;97.79;103918.25;5106028;28;20051;-67
2023/02/07 10:59:44;;;;;;;16.15;10.02;;;;;;;1.80;98.37;103920.66;5113199;28;20142;-63
2023/02/07 11:02:43;;;;;;;16.92;10.40;;;;;;;1.88;98.20;103910.97;5079963;28;20135;-63
2023/02/07 11:05:17;;;;;;;15.27;10.20;;;;;;;1.88;96.85;103929.78;5108724;28;20073;-62
2023/02/07 11:08:19;;;;;;;15.82;10.82;;;;;;;1.78;97.78;103925.31;5116375;28;20050;-62
2023/02/07 11:10:46;;;;;;;15.35;10.88;;;;;;;1.79;98.44;103921.66;5064131;28;20441;-63
2023/02/07 11:13:28;;;;;;;14.88;10.00;;;;;;;1.81;98.17;103914.34;5119257;28;20113;-65
2023/02/07 11:16:14;;;;;;;15.85;10.40;;;;;;;1.81;98.50;103914.34;5104371;28;20039;-65
2023/02/07 11:18:45;;;;;;;;;;;;;;;1.85;98.11;103916.63;5101889;27;20048;-64
2023/02/07 11:21:32;;;;;;;15.15;9.57;;;;;;;1.90;97.15;103917.06;5116028;27;19920;-64
2023/02/07 11:24:07;;;;;;;14.57;10.38;;;;;;;1.92;97.03;103907.03;5114080;27;20124;-65
2023/02/07 11:26:40;;;;;;;15.27;9.55;;;;;;;2.02;97.19;103914.25;5105971;27;20046;-63
2023/02/07 11:29:16;;;;;;;14.73;8.98;;;;;;;2.12;96.65;103907.97;5117765;28;20048;-64
2023/02/07 11:31:44;;;;;;;14.07;8.77;;;;;;;2.15;94.96;103906.00;5117791;28;20118;-64
2023/02/07 11:34:47;;;;;;;12.82;8.25;;;;;;;2.13;94.57;103900.75;5113784;27;20566;-64
2023/02/07 11:37:31;;;;;;;13.25;8.10;;;;;;;2.12;95.09;103897.19;5079358;28;20131;-64